createdAt,value
2017-08-08T00:01:49.849Z,68.80
2017-08-08T00:04:17.371Z,68.70
2017-08-08T00:06:44.889Z,68.60
2017-08-08T00:09:12.433Z,68.40
2017-08-08T00:11:40.101Z,68.40
2017-08-08T00:14:08.045Z,68.00
2017-08-08T00:16:35.556Z,68.00
2017-08-08T00:19:03.089Z,67.80
2017-08-08T00:21:30.605Z,68.00
2017-08-08T00:23:58.137Z,67.50
2017-08-08T00:26:25.638Z,67.20
2017-08-08T00:28:53.218Z,67.10
2017-08-08T00:31:20.728Z,67.00
2017-08-08T00:33:48.234Z,66.90
2017-08-08T00:36:16.149Z,66.70
2017-08-08T00:38:43.660Z,66.70
2017-08-08T00:41:11.205Z,66.70
2017-08-08T00:43:38.710Z,66.60
2017-08-08T00:46:06.235Z,66.70
2017-08-08T00:48:33.738Z,66.40
2017-08-08T00:51:01.282Z,66.50
2017-08-08T00:53:28.803Z,66.60
2017-08-08T00:55:56.706Z,66.80
2017-08-08T00:58:24.226Z,66.80
2017-08-08T01:00:52.145Z,66.60
2017-08-08T01:03:19.690Z,66.60
2017-08-08T01:05:47.208Z,66.40
2017-08-08T01:08:15.138Z,66.50
2017-08-08T01:10:42.659Z,66.50
2017-08-08T01:13:10.206Z,66.50
2017-08-08T01:15:37.718Z,66.30
2017-08-08T01:18:05.259Z,66.20
2017-08-08T01:20:32.800Z,65.90
2017-08-08T01:23:00.305Z,65.60
2017-08-08T01:25:27.837Z,65.40
2017-08-08T01:27:55.371Z,65.50
2017-08-08T01:30:22.896Z,65.50
2017-08-08T01:32:50.432Z,65.40
2017-08-08T01:35:17.983Z,65.30
2017-08-08T01:37:45.507Z,65.30
2017-08-08T01:40:13.014Z,65.40
2017-08-08T01:42:40.535Z,65.50
2017-08-08T01:45:08.047Z,65.40
2017-08-08T01:47:35.962Z,65.60
2017-08-08T01:50:03.478Z,65.60
2017-08-08T01:52:31.020Z,65.80
2017-08-08T01:54:58.931Z,66.00
2017-08-08T01:57:26.457Z,66.00
2017-08-08T01:59:54.821Z,66.10
2017-08-08T02:02:23.609Z,66.10
2017-08-08T02:04:51.531Z,66.30
2017-08-08T02:07:19.040Z,66.30
2017-08-08T02:09:46.974Z,66.40
2017-08-08T02:12:14.508Z,66.40
2017-08-08T02:14:42.042Z,66.60
2017-08-08T02:17:09.556Z,66.60
2017-08-08T02:19:37.099Z,66.70
2017-08-08T02:22:04.622Z,66.70
2017-08-08T02:24:32.163Z,66.70
2017-08-08T02:26:59.671Z,66.60
2017-08-08T02:29:27.174Z,66.50
2017-08-08T02:31:54.719Z,66.60
2017-08-08T02:34:22.642Z,66.80
2017-08-08T02:36:50.183Z,66.80
2017-08-08T02:39:17.685Z,66.70
2017-08-08T02:41:45.216Z,66.60
2017-08-08T02:44:12.744Z,66.60
2017-08-08T02:46:40.285Z,66.50
2017-08-08T02:49:08.186Z,66.80
2017-08-08T02:51:35.680Z,66.80
2017-08-08T02:54:03.211Z,67.00
2017-08-08T02:56:30.721Z,67.20
2017-08-08T02:58:58.653Z,67.50
2017-08-08T03:01:26.166Z,67.50
2017-08-08T03:03:53.691Z,67.90
2017-08-08T03:06:21.610Z,68.30
2017-08-08T03:08:49.135Z,68.30
2017-08-08T03:11:16.664Z,68.70
2017-08-08T03:13:44.856Z,69.10
2017-08-08T03:16:12.770Z,69.70
2017-08-08T03:18:40.295Z,69.70
2017-08-08T03:21:07.817Z,69.30
2017-08-08T03:23:35.333Z,68.50
2017-08-08T03:26:02.861Z,68.20
2017-08-08T03:28:30.381Z,67.80
2017-08-08T03:30:57.905Z,67.70
2017-08-08T03:33:25.406Z,67.70
2017-08-08T03:35:52.972Z,67.30
2017-08-08T03:38:20.490Z,67.50
2017-08-08T03:40:48.016Z,67.10
2017-08-08T03:43:15.542Z,67.10
2017-08-08T03:45:43.046Z,67.10
2017-08-08T03:48:10.586Z,67.10
2017-08-08T03:50:38.083Z,67.20
2017-08-08T03:53:05.605Z,67.30
2017-08-08T03:55:33.109Z,67.10
2017-08-08T03:58:00.662Z,66.80
2017-08-08T04:00:28.170Z,66.70
2017-08-08T04:02:56.107Z,66.70
2017-08-08T04:05:23.622Z,66.70
2017-08-08T04:07:51.566Z,66.50
2017-08-08T04:10:19.097Z,66.50
2017-08-08T04:12:46.706Z,66.40
2017-08-08T04:15:14.232Z,66.20
2017-08-08T04:17:42.148Z,66.30
2017-08-08T04:20:09.678Z,66.40
2017-08-08T04:22:37.187Z,66.40
2017-08-08T04:25:04.721Z,66.50
2017-08-08T04:27:32.233Z,66.70
2017-08-08T04:30:00.166Z,66.70
2017-08-08T04:32:27.674Z,66.70
2017-08-08T04:34:55.183Z,66.80
2017-08-08T04:37:23.471Z,67.00
2017-08-08T04:39:51.161Z,67.00
2017-08-08T04:42:18.701Z,66.80
2017-08-08T04:44:46.607Z,67.00
2017-08-08T04:47:14.134Z,67.00
2017-08-08T04:49:42.037Z,66.60
2017-08-08T04:52:09.596Z,66.60
2017-08-08T04:54:37.114Z,66.70
2017-08-08T04:57:04.630Z,66.50
2017-08-08T04:59:32.171Z,66.80
2017-08-08T05:01:59.770Z,66.80
2017-08-08T05:04:27.302Z,66.90
2017-08-08T05:06:54.815Z,67.00
2017-08-08T05:09:23.174Z,66.90
2017-08-08T05:11:51.563Z,67.30
2017-08-08T05:14:19.506Z,67.30
2017-08-08T05:16:47.041Z,67.30
2017-08-08T05:19:14.543Z,67.30
2017-08-08T05:21:42.465Z,67.40
2017-08-08T05:24:09.971Z,67.40
2017-08-08T05:26:37.914Z,68.00
2017-08-08T05:29:05.441Z,67.90
2017-08-08T05:31:32.974Z,68.10
2017-08-08T05:34:00.508Z,68.00
2017-08-08T05:36:28.103Z,68.60
2017-08-08T05:38:55.606Z,68.50
2017-08-08T05:41:23.130Z,67.60
2017-08-08T05:43:50.652Z,67.40
2017-08-08T05:46:18.212Z,66.90
2017-08-08T05:48:45.761Z,66.40
2017-08-08T05:51:13.681Z,65.20
2017-08-08T05:53:41.193Z,65.20
2017-08-08T05:56:08.695Z,65.20
2017-08-08T05:58:36.261Z,64.70
2017-08-08T06:01:03.755Z,64.50
2017-08-08T06:03:31.690Z,64.80
2017-08-08T06:05:59.198Z,64.80
2017-08-08T06:08:26.774Z,64.90
2017-08-08T06:10:54.273Z,65.40
2017-08-08T06:13:22.518Z,65.20
2017-08-08T06:15:50.032Z,65.50
2017-08-08T06:18:17.605Z,65.60
2017-08-08T06:20:45.159Z,66.30
2017-08-08T06:23:12.682Z,66.90
2017-08-08T06:25:40.219Z,66.30
2017-08-08T06:28:07.729Z,66.70
2017-08-08T06:30:35.257Z,66.70
2017-08-08T06:33:02.792Z,66.80
2017-08-08T06:35:30.309Z,66.50
2017-08-08T06:37:57.888Z,66.20
2017-08-08T06:40:25.410Z,66.60
2017-08-08T06:42:53.310Z,66.80
2017-08-08T06:45:20.847Z,66.80
2017-08-08T06:47:48.470Z,66.90
2017-08-08T06:50:15.992Z,66.90
2017-08-08T06:52:43.548Z,67.30
2017-08-08T06:55:11.057Z,66.80
2017-08-08T06:57:38.582Z,67.10
2017-08-08T07:00:06.091Z,66.90
2017-08-08T07:02:33.677Z,67.60
2017-08-08T07:05:01.236Z,68.30
2017-08-08T07:07:28.764Z,68.00
2017-08-08T07:09:56.684Z,67.80
2017-08-08T07:12:24.338Z,67.90
2017-08-08T07:14:51.868Z,68.10
2017-08-08T07:17:19.405Z,67.50
2017-08-08T07:19:47.333Z,68.60
2017-08-08T07:22:14.850Z,68.60
2017-08-08T07:24:42.397Z,68.30
2017-08-08T07:27:10.855Z,68.40
2017-08-08T07:29:38.797Z,68.70
2017-08-08T07:32:06.330Z,68.70
2017-08-08T07:34:33.915Z,69.30
2017-08-08T07:37:01.475Z,68.90
2017-08-08T07:39:29.009Z,68.80
2017-08-08T07:41:56.568Z,69.10
2017-08-08T07:44:24.173Z,69.60
2017-08-08T07:46:52.168Z,69.30
2017-08-08T07:49:19.673Z,69.30
2017-08-08T07:51:47.223Z,69.80
2017-08-08T07:54:14.740Z,69.30
2017-08-08T07:56:42.315Z,69.70
2017-08-08T07:59:09.831Z,69.90
2017-08-08T08:01:37.782Z,69.70
2017-08-08T08:04:05.323Z,69.70
2017-08-08T08:06:32.858Z,70.20
2017-08-08T08:09:00.362Z,70.00
2017-08-08T08:11:27.934Z,70.60
2017-08-08T08:13:55.431Z,70.70
2017-08-08T08:16:23.213Z,70.60
2017-08-08T08:18:50.754Z,70.70
2017-08-08T08:21:18.301Z,72.20
2017-08-08T08:23:45.835Z,72.00
2017-08-08T08:26:13.734Z,71.20
2017-08-08T08:28:41.298Z,71.20
2017-08-08T08:31:08.823Z,71.50
2017-08-08T08:33:36.357Z,72.00
2017-08-08T08:36:03.874Z,72.10
2017-08-08T08:38:31.467Z,72.20
2017-08-08T08:40:58.999Z,72.40
2017-08-08T08:43:26.501Z,72.30
2017-08-08T08:45:54.099Z,72.60
2017-08-08T08:48:21.937Z,71.90
2017-08-08T08:50:49.485Z,72.10
2017-08-08T08:53:17.000Z,74.00
2017-08-08T08:55:44.587Z,73.10
2017-08-08T08:58:12.135Z,74.50
2017-08-08T09:00:39.671Z,74.90
2017-08-08T09:03:07.245Z,74.20
2017-08-08T09:05:34.798Z,74.90
2017-08-08T09:08:02.344Z,74.10
2017-08-08T09:10:29.864Z,75.70
2017-08-08T09:12:57.463Z,74.80
2017-08-08T09:15:25.001Z,74.60
2017-08-08T09:17:53.298Z,74.10
2017-08-08T09:20:20.812Z,74.20
2017-08-08T09:22:48.385Z,73.90
2017-08-08T09:25:15.975Z,74.70
2017-08-08T09:27:43.529Z,74.90
2017-08-08T09:30:11.074Z,74.30
2017-08-08T09:32:39.252Z,73.70
2017-08-08T09:35:06.790Z,74.50
2017-08-08T09:37:34.370Z,74.50
2017-08-08T09:40:01.904Z,74.20
2017-08-08T09:42:29.519Z,74.30
2017-08-08T09:44:57.110Z,74.60
2017-08-08T09:47:24.641Z,74.00
2017-08-08T09:49:52.252Z,73.70
2017-08-08T09:52:19.824Z,74.40
2017-08-08T09:54:47.369Z,74.50
2017-08-08T09:57:14.905Z,74.80
2017-08-08T09:59:42.463Z,74.80
2017-08-08T10:02:10.382Z,75.20
2017-08-08T10:04:37.964Z,75.20
2017-08-08T10:07:05.914Z,75.80
2017-08-08T10:09:33.487Z,75.80
2017-08-08T10:12:00.998Z,77.30
2017-08-08T10:14:28.518Z,77.70
2017-08-08T10:16:56.037Z,77.80
2017-08-08T10:19:23.613Z,79.50
2017-08-08T10:21:51.858Z,80.30
2017-08-08T10:24:19.415Z,81.40
2017-08-08T10:26:46.942Z,81.50
2017-08-08T10:29:14.470Z,81.50
2017-08-08T10:31:42.043Z,82.90
2017-08-08T10:34:09.551Z,84.20
2017-08-08T10:36:37.687Z,83.60
2017-08-08T10:39:05.211Z,84.40
2017-08-08T10:41:32.858Z,85.60
2017-08-08T10:44:00.389Z,84.70
2017-08-08T10:46:27.913Z,85.70
2017-08-08T10:48:55.569Z,87.20
2017-08-08T10:51:23.846Z,87.90
2017-08-08T10:53:51.765Z,87.90
2017-08-08T10:56:19.439Z,89.10
2017-08-08T10:58:46.985Z,90.10
2017-08-08T11:01:14.539Z,90.70
2017-08-08T11:03:42.170Z,91.20
2017-08-08T11:06:09.759Z,91.20
2017-08-08T11:08:37.324Z,91.50
2017-08-08T11:11:04.913Z,91.60
2017-08-08T11:13:32.496Z,92.20
2017-08-08T11:16:00.416Z,93.60
2017-08-08T11:18:28.119Z,93.60
2017-08-08T11:20:55.662Z,92.80
2017-08-08T11:23:23.203Z,92.80
2017-08-08T11:25:50.763Z,93.20
2017-08-08T11:28:18.288Z,93.60
2017-08-08T11:30:45.854Z,94.30
2017-08-08T11:33:13.429Z,94.00
2017-08-08T11:35:41.374Z,94.00
2017-08-08T11:38:08.924Z,94.00
2017-08-08T11:40:36.478Z,94.20
2017-08-08T11:43:04.027Z,94.10
2017-08-08T11:45:31.576Z,93.70
2017-08-08T11:47:59.111Z,94.00
2017-08-08T11:50:26.639Z,93.60
2017-08-08T11:52:54.189Z,94.00
2017-08-08T11:55:21.739Z,93.60
2017-08-08T11:57:49.290Z,94.30
2017-08-08T12:00:16.831Z,95.00
2017-08-08T12:02:44.421Z,94.40
2017-08-08T12:05:11.992Z,93.80
2017-08-08T12:07:39.536Z,94.90
2017-08-08T12:10:07.093Z,95.40
2017-08-08T12:12:34.641Z,94.20
2017-08-08T12:15:02.218Z,94.30
2017-08-08T12:17:29.758Z,94.30
2017-08-08T12:19:57.293Z,95.30
2017-08-08T12:22:24.845Z,94.80
2017-08-08T12:24:52.397Z,94.20
2017-08-08T12:27:20.308Z,94.40
2017-08-08T12:29:47.985Z,94.40
2017-08-08T12:32:15.957Z,94.90
2017-08-08T12:34:43.539Z,94.90
2017-08-08T12:37:11.085Z,94.90
2017-08-08T12:39:38.603Z,95.40
2017-08-08T12:42:06.167Z,95.40
2017-08-08T12:44:33.699Z,96.10
2017-08-08T12:47:01.707Z,95.40
2017-08-08T12:49:29.258Z,95.40
2017-08-08T12:51:56.792Z,95.00
2017-08-08T12:54:24.317Z,95.70
2017-08-08T12:56:51.914Z,95.20
2017-08-08T12:59:19.445Z,95.00
2017-08-08T13:01:46.961Z,95.60
2017-08-08T13:04:14.497Z,94.60
2017-08-08T13:06:42.040Z,95.10
2017-08-08T13:09:09.599Z,95.70
2017-08-08T13:11:37.141Z,95.90
2017-08-08T13:14:04.767Z,96.00
2017-08-08T13:16:32.357Z,96.10
2017-08-08T13:18:59.972Z,95.40
2017-08-08T13:21:27.989Z,95.70
2017-08-08T13:23:55.580Z,95.70
2017-08-08T13:26:23.091Z,95.80
2017-08-08T13:28:50.649Z,95.90
2017-08-08T13:31:18.234Z,96.60
2017-08-08T13:33:45.806Z,96.10
2017-08-08T13:36:13.349Z,96.10
2017-08-08T13:38:40.881Z,96.00
2017-08-08T13:41:08.463Z,96.00
2017-08-08T13:43:36.023Z,95.70
2017-08-08T13:46:03.621Z,95.40
2017-08-08T13:48:31.211Z,95.50
2017-08-08T13:50:58.728Z,95.70
2017-08-08T13:53:26.299Z,95.40
2017-08-08T13:55:53.826Z,96.10
2017-08-08T13:58:21.386Z,95.90
2017-08-08T14:00:48.949Z,96.50
2017-08-08T14:03:16.543Z,96.70
2017-08-08T14:05:44.164Z,97.50
2017-08-08T14:08:11.727Z,97.70
2017-08-08T14:10:39.244Z,97.60
2017-08-08T14:13:06.827Z,98.40
2017-08-08T14:15:34.493Z,98.60
2017-08-08T14:18:01.998Z,97.70
2017-08-08T14:20:29.703Z,98.50
2017-08-08T14:22:57.353Z,97.90
2017-08-08T14:25:24.973Z,97.80
2017-08-08T14:27:52.969Z,97.90
2017-08-08T14:30:22.137Z,96.50
2017-08-08T14:32:49.683Z,96.50
2017-08-08T14:35:17.209Z,96.50
2017-08-08T14:37:45.268Z,94.40
2017-08-08T14:40:12.893Z,94.40
2017-08-08T14:42:40.499Z,94.80
2017-08-08T14:45:08.661Z,93.10
2017-08-08T14:47:36.806Z,91.80
2017-08-08T14:50:04.322Z,91.80
2017-08-08T14:52:32.044Z,91.30
2017-08-08T14:54:59.627Z,92.10
2017-08-08T14:57:27.820Z,91.90
2017-08-08T14:59:55.424Z,91.90
2017-08-08T15:02:23.533Z,93.50
2017-08-08T15:04:51.256Z,92.20
2017-08-08T15:07:18.863Z,91.20
2017-08-08T15:09:46.429Z,89.00
2017-08-08T15:12:14.066Z,88.70
2017-08-08T15:14:41.993Z,90.30
2017-08-08T15:17:09.516Z,90.20
2017-08-08T15:19:37.083Z,89.70
2017-08-08T15:22:04.624Z,90.20
2017-08-08T15:24:32.239Z,91.20
2017-08-08T15:26:59.742Z,90.00
2017-08-08T15:29:27.311Z,90.70
2017-08-08T15:31:54.851Z,89.80
2017-08-08T15:34:23.618Z,88.80
2017-08-08T15:36:51.161Z,88.80
2017-08-08T15:39:18.684Z,89.40
2017-08-08T15:41:46.229Z,89.40
2017-08-08T15:44:13.747Z,88.10
2017-08-08T15:46:41.294Z,88.70
2017-08-08T15:49:08.810Z,88.30
2017-08-08T15:51:36.359Z,87.00
2017-08-08T15:54:03.863Z,87.50
2017-08-08T15:56:31.427Z,87.80
2017-08-08T15:58:58.958Z,87.10
2017-08-08T16:01:26.465Z,87.70
2017-08-08T16:03:54.052Z,88.00
2017-08-08T16:06:22.036Z,87.20
2017-08-08T16:08:49.566Z,87.10
2017-08-08T16:11:17.073Z,86.10
2017-08-08T16:13:44.644Z,87.10
2017-08-08T16:16:12.194Z,86.40
2017-08-08T16:18:39.731Z,86.60
2017-08-08T16:21:07.302Z,85.80
2017-08-08T16:23:35.276Z,86.90
2017-08-08T16:26:02.803Z,86.90
2017-08-08T16:28:30.316Z,86.20
2017-08-08T16:30:58.287Z,83.80
2017-08-08T16:33:25.810Z,83.80
2017-08-08T16:35:53.355Z,81.90
2017-08-08T16:38:20.948Z,81.20
2017-08-08T16:40:48.490Z,81.50
2017-08-08T16:43:16.032Z,81.00
2017-08-08T16:45:43.599Z,81.30
2017-08-08T16:48:11.147Z,81.70
2017-08-08T16:50:38.704Z,80.80
2017-08-08T16:53:06.243Z,80.70
2017-08-08T16:55:33.796Z,80.70
2017-08-08T16:58:01.332Z,80.80
2017-08-08T17:00:28.858Z,80.40
2017-08-08T17:02:56.401Z,80.10
2017-08-08T17:05:23.965Z,80.00
2017-08-08T17:07:51.502Z,80.10
2017-08-08T17:10:19.059Z,80.10
2017-08-08T17:12:46.606Z,80.90
2017-08-08T17:15:14.173Z,80.90
2017-08-08T17:17:41.699Z,80.90
2017-08-08T17:20:09.628Z,81.20
2017-08-08T17:22:37.196Z,81.10
2017-08-08T17:25:04.741Z,81.40
2017-08-08T17:27:32.320Z,81.20
2017-08-08T17:29:59.901Z,81.40
2017-08-08T17:32:27.436Z,81.20
2017-08-08T17:34:54.999Z,81.90
2017-08-08T17:37:23.092Z,81.60
2017-08-08T17:39:51.023Z,82.10
2017-08-08T17:42:18.535Z,82.10
2017-08-08T17:44:46.112Z,83.10
2017-08-08T17:47:13.617Z,83.70
2017-08-08T17:49:41.128Z,83.60
2017-08-08T17:52:08.700Z,84.50
2017-08-08T17:54:36.248Z,83.80
2017-08-08T17:57:03.817Z,83.50
2017-08-08T17:59:31.358Z,84.40
2017-08-08T18:01:58.897Z,80.70
2017-08-08T18:04:26.415Z,80.30
2017-08-08T18:07:04.380Z,79.50
2017-08-08T18:09:33.904Z,78.80
2017-08-08T18:12:01.656Z,78.30
2017-08-08T18:14:29.201Z,78.90
2017-08-08T18:16:56.780Z,79.10
2017-08-08T18:19:24.338Z,79.10
2017-08-08T18:21:51.858Z,79.40
2017-08-08T18:24:19.403Z,79.20
2017-08-08T18:26:46.918Z,79.30
2017-08-08T18:29:14.450Z,79.90
2017-08-08T18:31:41.981Z,80.20
2017-08-08T18:34:09.543Z,80.00
2017-08-08T18:36:37.097Z,80.80
2017-08-08T18:39:04.738Z,80.20
2017-08-08T18:41:32.265Z,78.60
2017-08-08T18:43:59.834Z,77.90
2017-08-08T18:46:27.362Z,77.80
2017-08-08T18:48:54.934Z,77.30
2017-08-08T18:51:22.927Z,77.70
2017-08-08T18:53:50.433Z,78.10
2017-08-08T18:56:18.016Z,78.50
2017-08-08T18:58:45.542Z,78.70
2017-08-08T19:01:13.237Z,79.20
2017-08-08T19:03:40.758Z,79.40
2017-08-08T19:06:08.398Z,79.30
2017-08-08T19:08:36.324Z,79.70
2017-08-08T19:11:03.876Z,79.70
2017-08-08T19:13:31.527Z,80.30
2017-08-08T19:15:59.190Z,80.40
2017-08-08T19:18:26.737Z,80.40
2017-08-08T19:20:54.281Z,80.60
2017-08-08T19:23:21.832Z,80.80
2017-08-08T19:25:49.730Z,81.30
2017-08-08T19:28:17.272Z,81.30
2017-08-08T19:30:44.791Z,81.40
2017-08-08T19:33:12.341Z,82.00
2017-08-08T19:35:39.880Z,82.00
2017-08-08T19:38:07.413Z,82.30
2017-08-08T19:40:34.933Z,82.50
2017-08-08T19:43:02.895Z,82.70
2017-08-08T19:45:30.848Z,82.90
2017-08-08T19:47:58.357Z,82.90
2017-08-08T19:50:26.005Z,83.30
2017-08-08T19:52:54.157Z,83.40
2017-08-08T19:55:22.081Z,83.70
2017-08-08T19:57:49.587Z,83.70
2017-08-08T20:00:17.120Z,83.70
2017-08-08T20:02:44.639Z,83.90
2017-08-08T20:05:12.191Z,84.30
2017-08-08T20:07:39.752Z,84.20
2017-08-08T20:10:07.313Z,84.60
2017-08-08T20:12:34.902Z,84.60
2017-08-08T20:15:02.422Z,84.90
2017-08-08T20:17:29.977Z,85.20
2017-08-08T20:19:57.511Z,85.20
2017-08-08T20:22:25.446Z,86.00
2017-08-08T20:24:53.830Z,86.00
2017-08-08T20:27:22.182Z,85.90
2017-08-08T20:29:49.698Z,86.40
2017-08-08T20:32:17.255Z,86.30
2017-08-08T20:34:44.802Z,86.70
2017-08-08T20:37:12.733Z,87.10
2017-08-08T20:39:40.270Z,87.10
2017-08-08T20:42:07.800Z,87.40
2017-08-08T20:44:35.335Z,87.60
2017-08-08T20:47:02.865Z,88.00
2017-08-08T20:49:30.399Z,87.90
2017-08-08T20:51:57.931Z,87.80
2017-08-08T20:54:25.480Z,88.00
2017-08-08T20:56:54.154Z,88.40
2017-08-08T20:59:22.185Z,88.40
2017-08-08T21:01:49.715Z,88.20
2017-08-08T21:04:17.235Z,88.40
2017-08-08T21:06:44.863Z,88.40
2017-08-08T21:09:12.408Z,88.30
2017-08-08T21:11:39.972Z,88.00
2017-08-08T21:14:07.767Z,88.60
2017-08-08T21:16:35.310Z,88.40
2017-08-08T21:19:02.827Z,88.90
2017-08-08T21:21:30.398Z,88.80
2017-08-08T21:23:58.460Z,88.80
2017-08-08T21:26:26.402Z,89.00
2017-08-08T21:28:53.933Z,89.50
2017-08-08T21:31:21.510Z,88.90
2017-08-08T21:33:49.041Z,89.00
2017-08-08T21:36:16.569Z,89.20
2017-08-08T21:38:44.119Z,89.20
2017-08-08T21:41:11.652Z,89.70
2017-08-08T21:43:39.208Z,89.50
2017-08-08T21:46:06.802Z,89.90
2017-08-08T21:48:34.351Z,90.40
2017-08-08T21:51:01.869Z,91.00
2017-08-08T21:53:29.477Z,90.00
2017-08-08T21:55:56.994Z,89.50
2017-08-08T21:58:24.518Z,89.30
2017-08-08T22:00:52.068Z,89.50
2017-08-08T22:03:19.590Z,89.90
2017-08-08T22:05:47.126Z,90.30
2017-08-08T22:08:14.684Z,90.50
2017-08-08T22:10:42.622Z,91.30
2017-08-08T22:13:10.143Z,91.30
2017-08-08T22:15:37.690Z,91.20
2017-08-08T22:18:05.206Z,91.60
2017-08-08T22:20:32.789Z,91.40
2017-08-08T22:23:00.712Z,91.80
2017-08-08T22:25:28.638Z,91.80
2017-08-08T22:27:56.195Z,92.20
2017-08-08T22:30:24.388Z,92.60
2017-08-08T22:32:52.517Z,92.70
2017-08-08T22:35:20.060Z,92.80
2017-08-08T22:37:47.598Z,92.80
2017-08-08T22:40:15.250Z,92.80
2017-08-08T22:42:42.816Z,92.60
2017-08-08T22:45:10.366Z,92.50
2017-08-08T22:47:37.902Z,92.70
2017-08-08T22:50:05.438Z,92.30
2017-08-08T22:52:33.369Z,92.00
2017-08-08T22:55:00.881Z,92.00
2017-08-08T22:57:28.410Z,92.00
2017-08-08T22:59:55.940Z,92.00
2017-08-08T23:02:23.468Z,91.90
2017-08-08T23:04:51.018Z,91.80
2017-08-08T23:07:18.549Z,91.90
2017-08-08T23:09:46.133Z,91.80
2017-08-08T23:12:13.653Z,91.80
2017-08-08T23:14:41.206Z,91.90
2017-08-08T23:17:08.740Z,91.80
2017-08-08T23:19:44.296Z,91.70
2017-08-08T23:22:11.819Z,91.50
2017-08-08T23:24:39.449Z,91.60
2017-08-08T23:27:07.520Z,91.70
2017-08-08T23:29:35.044Z,91.70
2017-08-08T23:32:02.625Z,91.60
2017-08-08T23:34:30.158Z,91.60
2017-08-08T23:36:57.731Z,91.50
2017-08-08T23:39:25.283Z,91.60
2017-08-08T23:41:52.822Z,91.50
2017-08-08T23:44:20.373Z,91.60
2017-08-08T23:46:47.906Z,91.40
2017-08-08T23:49:15.445Z,91.40
2017-08-08T23:51:43.411Z,91.50
2017-08-08T23:54:10.946Z,91.50
2017-08-08T23:56:38.479Z,91.40
2017-08-08T23:59:06.014Z,91.30
